Etusivu
METAR-TAF:

METAR-TAF

Lentoasemat :

Resistencia, Argentiina

Leveyspiiri: 27-27S, Pituuspiiri: 059-03W, korkeus merenpinnasta: 53 m

Tämänhetkinen sää

Tämä raportti tehtiin 57 minuuttia sitten, kello 10.00 UTC
Tuuli 6 kn etelästä
Lämpötila 20°C
Kosteus 100%
Ilmanpaine 1011 hPa
Näkyvyys 10 km tai enemmän
ei pilviä alle 1500 m:ssä eikä cumulonimbus-pilviä

METAR: SARE 231000Z 18006KT CAVOK 20/20 Q1011

Aika: 07:57 (10:57 UTC)

Sääennuste

Tämä raportti tehtiin 5 tuntia ja 57 minuuttia sitten, kello 05.00 UTC
Ennuste voimassa 23. päivästä klo 06 UTC - 24. päivään klo 06 UTC
Tuuli 5 kn etelästä/kaakosta
Näkyvyys 10 km tai enemmän
ei pilviä alle 1500 m:ssä eikä cumulonimbus-pilviä

TAF: SARE 230500Z 2306/2406 15005KT CAVOK TX32/2319Z TN19/2309Z

Säähavainnot ja -ennusteet yli 4000 lentoasemalta (METAR- ja TAF-raportit).

Käytössä olevat sääasemat on merkitty karttaan keltaisilla ja punaisilla pisteillä.

Aseta hiiri pisteen päälle nähdäksesi sääaseman nimen.

Klikkaa sitten nähdäksesi säähavainnot ja -ennusteet.

Kartan vaihtaminen: klikkaa mustalla rastilla varustettuja vihreitä pisteitä, niin voit zoomata sisään; viivalla varustettua vihreää pistettä, niin voit zoomata ulos tai vihreitä nuolia, niin pääset viereisille kartoille.


METAR-TAF: